Time;durP1;ratioP1;P1;durP2;ratioP2;P2;SDS_P1;SDS_P2;PMS_P1;PMS_P2;Temp;Humidity;BMP_temperature;BMP_pressure;BME280_temperature;BME280_humidity;BME280_pressure;Samples;Min_cycle;Max_cycle;Signal;HPM_P1;HPM_P2
2021/12/04 00:00:13;;;;;;;6.45;3.15;;;6.50;99.90;;;;;;5057282;28;20035;-72
2021/12/04 00:02:39;;;;;;;6.57;3.70;;;6.50;99.90;;;;;;5050306;28;20478;-72
2021/12/04 00:05:06;;;;;;;4.18;3.30;;;6.50;99.90;;;;;;5063819;28;20078;-72
2021/12/04 00:07:34;;;;;;;3.90;3.33;;;6.50;99.90;;;;;;5056058;28;20063;-73
2021/12/04 00:10:03;;;;;;;3.25;2.85;;;6.50;99.90;;;;;;5069574;28;20074;-73
2021/12/04 00:12:33;;;;;;;5.03;3.00;;;6.50;99.90;;;;;;5054461;28;20025;-72
2021/12/04 00:15:00;;;;;;;4.10;3.40;;;6.50;99.90;;;;;;5061667;28;20081;-73
2021/12/04 00:17:26;;;;;;;4.13;3.60;;;6.50;99.90;;;;;;5053509;28;20146;-72
2021/12/04 00:19:52;;;;;;;5.50;3.67;;;6.50;99.90;;;;;;5055802;28;20385;-72
2021/12/04 00:22:18;;;;;;;3.15;2.85;;;6.50;99.90;;;;;;5068342;28;20017;-72
2021/12/04 00:24:43;;;;;;;3.00;2.70;;;6.60;99.90;;;;;;5060834;28;20035;-72
2021/12/04 00:27:09;;;;;;;3.35;3.05;;;6.50;99.90;;;;;;5060774;28;20021;-72
2021/12/04 00:29:35;;;;;;;7.82;3.63;;;6.50;99.90;;;;;;5068573;28;20025;-73
2021/12/04 00:32:27;;;;;;;3.75;3.30;;;6.50;99.90;;;;;;5055211;28;20045;-72
2021/12/04 00:35:03;;;;;;;3.75;3.00;;;6.50;99.90;;;;;;5062605;28;20095;-72
2021/12/04 00:49:07;;;;;;;4.22;3.92;;;6.50;99.90;;;;;;5053059;28;20035;-72
2021/12/04 00:51:11;;;;;;;4.30;3.90;;;6.60;99.90;;;;;;5056592;28;20048;-72
2021/12/04 00:53:37;;;;;;;4.85;4.45;;;6.50;99.90;;;;;;5056559;28;20500;-72
2021/12/04 00:56:04;;;;;;;4.25;3.85;;;6.60;99.90;;;;;;5065889;28;20024;-72
2021/12/04 00:58:29;;;;;;;3.42;3.13;;;6.50;99.90;;;;;;5065108;28;20043;-72
2021/12/04 01:00:55;;;;;;;3.20;3.00;;;6.60;99.90;;;;;;5062338;28;20469;-72
2021/12/04 01:03:22;;;;;;;4.35;4.00;;;6.50;99.90;;;;;;5053777;28;20037;-72
2021/12/04 01:05:47;;;;;;;5.82;4.07;;;6.50;99.90;;;;;;5054443;28;20021;-72
2021/12/04 01:08:13;;;;;;;3.97;3.65;;;6.60;99.90;;;;;;5054068;28;20051;-72
2021/12/04 01:10:39;;;;;;;3.47;3.17;;;6.60;99.90;;;;;;5051603;28;20078;-72
2021/12/04 01:13:10;;;;;;;5.03;3.78;;;6.60;99.90;;;;;;5058507;28;20028;-72
2021/12/04 01:15:40;;;;;;;3.50;3.20;;;6.70;99.90;;;;;;5052202;28;20032;-73
2021/12/04 01:18:06;;;;;;;4.78;3.40;;;6.60;99.90;;;;;;5058292;28;20427;-72
2021/12/04 01:20:31;;;;;;;3.78;3.00;;;6.70;99.90;;;;;;5049345;28;20017;-72
2021/12/04 01:22:57;;;;;;;3.47;3.17;;;6.70;99.90;;;;;;5061955;28;20025;-72
2021/12/04 01:25:23;;;;;;;3.35;3.05;;;6.60;99.90;;;;;;5060796;28;20144;-72
2021/12/04 01:27:49;;;;;;;3.97;3.53;;;6.70;99.90;;;;;;5060967;28;20429;-72
2021/12/04 01:30:14;;;;;;;3.75;3.10;;;6.60;99.90;;;;;;5052113;28;20104;-72
2021/12/04 01:32:40;;;;;;;4.15;3.10;;;6.70;99.90;;;;;;5052044;28;20017;-72
2021/12/04 01:35:06;;;;;;;3.40;3.10;;;6.70;99.90;;;;;;5062601;28;20064;-72
2021/12/04 01:37:32;;;;;;;3.05;2.65;;;6.70;99.90;;;;;;5055344;28;20025;-73
2021/12/04 01:39:58;;;;;;;3.72;3.03;;;6.70;99.90;;;;;;5068031;28;20036;-73
2021/12/04 01:42:23;;;;;;;3.08;2.83;;;6.70;99.90;;;;;;5057741;28;20020;-72
2021/12/04 01:44:50;;;;;;;5.47;2.70;;;6.80;99.90;;;;;;5055393;28;20056;-72
2021/12/04 01:47:21;;;;;;;3.67;3.10;;;6.70;99.90;;;;;;5052493;28;20017;-72
2021/12/04 01:49:49;;;;;;;3.58;3.28;;;6.80;99.90;;;;;;5046156;28;20045;-72
2021/12/04 01:52:18;;;;;;;3.70;3.35;;;6.80;99.90;;;;;;5067179;28;20040;-72
2021/12/04 01:54:46;;;;;;;4.05;3.67;;;6.80;99.90;;;;;;5060828;28;20070;-73
2021/12/04 01:57:15;;;;;;;3.80;3.42;;;6.80;99.90;;;;;;5058801;28;20492;-73
2021/12/04 01:59:42;;;;;;;4.32;2.90;;;6.80;99.90;;;;;;5068063;28;20064;-72
2021/12/04 02:02:07;;;;;;;4.60;3.33;;;6.80;99.90;;;;;;5053005;28;20099;-72
2021/12/04 02:04:33;;;;;;;3.75;3.20;;;6.80;99.90;;;;;;5059162;28;20447;-72
2021/12/04 02:07:03;;;;;;;3.63;3.33;;;6.90;99.90;;;;;;5071586;28;20029;-72
2021/12/04 02:09:32;;;;;;;4.05;3.65;;;7.00;99.90;;;;;;5057119;28;20032;-72
2021/12/04 02:11:58;;;;;;;3.50;3.20;;;6.90;99.90;;;;;;5068250;28;20037;-72
2021/12/04 02:14:24;;;;;;;4.82;3.40;;;7.00;99.90;;;;;;5066172;28;20484;-72
2021/12/04 02:16:51;;;;;;;5.28;3.40;;;7.00;99.90;;;;;;5061072;28;20029;-72
2021/12/04 02:19:17;;;;;;;4.65;3.65;;;7.00;99.90;;;;;;5050819;28;20029;-72
2021/12/04 02:21:43;;;;;;;3.75;3.42;;;7.00;99.90;;;;;;5064790;28;20027;-72
2021/12/04 02:24:08;;;;;;;3.83;3.53;;;7.10;99.90;;;;;;5055677;28;20016;-72
2021/12/04 02:26:34;;;;;;;6.10;3.80;;;7.10;99.90;;;;;;5063126;28;20503;-72
2021/12/04 02:29:00;;;;;;;7.05;4.55;;;7.10;99.90;;;;;;5061260;28;20031;-72
2021/12/04 02:31:26;;;;;;;4.30;3.90;;;7.00;99.90;;;;;;5055415;28;20071;-72
2021/12/04 02:33:52;;;;;;;4.35;4.00;;;7.10;99.90;;;;;;5067984;28;20461;-72
2021/12/04 02:36:18;;;;;;;4.05;3.67;;;7.00;99.90;;;;;;5056660;28;20033;-72
2021/12/04 02:38:49;;;;;;;4.30;4.00;;;7.00;99.90;;;;;;5060760;28;20028;-72
2021/12/04 02:41:15;;;;;;;4.60;4.20;;;7.10;99.90;;;;;;5067813;28;20025;-72
2021/12/04 02:43:41;;;;;;;5.78;4.30;;;7.10;99.90;;;;;;5057559;28;20392;-72
2021/12/04 02:46:07;;;;;;;4.47;3.83;;;7.10;99.90;;;;;;5041540;28;20035;-72
2021/12/04 02:48:33;;;;;;;4.57;4.03;;;7.00;99.90;;;;;;5065970;28;20025;-72
2021/12/04 02:50:59;;;;;;;5.45;4.95;;;7.00;99.90;;;;;;5054050;28;20028;-72
2021/12/04 02:53:25;;;;;;;4.47;4.07;;;7.00;99.90;;;;;;5063457;28;20044;-73
2021/12/04 02:55:53;;;;;;;4.03;3.63;;;7.00;99.90;;;;;;5058225;28;20029;-72
2021/12/04 02:58:19;;;;;;;4.82;3.92;;;6.90;99.90;;;;;;5068625;28;20481;-72
2021/12/04 03:00:50;;;;;;;5.00;3.67;;;7.00;99.90;;;;;;5061845;28;20034;-72
2021/12/04 03:03:18;;;;;;;4.35;3.95;;;6.90;99.90;;;;;;5061737;28;20025;-73
2021/12/04 03:05:47;;;;;;;4.70;4.30;;;6.90;99.90;;;;;;5054193;28;20067;-72
2021/12/04 03:08:13;;;;;;;3.53;3.22;;;7.00;99.90;;;;;;5070587;28;20021;-72
2021/12/04 03:10:39;;;;;;;5.07;4.00;;;7.00;99.90;;;;;;5062385;28;20418;-72
2021/12/04 03:13:09;;;;;;;8.23;6.40;;;7.00;99.90;;;;;;5063225;28;20013;-72
2021/12/04 03:15:38;;;;;;;10.07;6.03;;;7.00;99.90;;;;;;5065645;28;20197;-73
2021/12/04 03:18:04;;;;;;;7.65;5.68;;;7.00;99.90;;;;;;5057853;28;20016;-73
2021/12/04 03:20:32;;;;;;;4.70;4.20;;;7.10;99.90;;;;;;5051489;28;20473;-72
2021/12/04 03:23:01;;;;;;;4.05;3.65;;;7.00;99.90;;;;;;5067787;28;20099;-72
2021/12/04 03:25:27;;;;;;;6.55;5.60;;;7.00;99.90;;;;;;5059933;28;20040;-72
2021/12/04 03:27:53;;;;;;;4.55;4.15;;;7.10;99.90;;;;;;5069766;28;20032;-73
2021/12/04 03:41:07;;;;;;;4.65;3.75;;;7.20;99.90;;;;;;5050459;28;20029;-72
2021/12/04 03:43:33;;;;;;;4.60;4.20;;;7.20;99.90;;;;;;5024784;28;20539;-72
2021/12/04 03:46:03;;;;;;;5.63;4.70;;;7.20;99.90;;;;;;5048732;28;20405;-72
2021/12/04 03:51:02;;;;;;;4.97;4.50;;;7.10;99.90;;;;;;5050600;28;20037;-72
2021/12/04 03:53:28;;;;;;;4.57;4.18;;;7.20;99.90;;;;;;5052108;28;20366;-73
2021/12/04 03:55:55;;;;;;;4.47;4.00;;;7.20;99.90;;;;;;5052357;28;20025;-73
2021/12/04 03:58:21;;;;;;;4.38;3.88;;;7.20;99.90;;;;;;5051790;28;20029;-72
2021/12/04 04:00:47;;;;;;;6.10;3.78;;;7.20;99.90;;;;;;5053054;28;20107;-73
2021/12/04 04:03:14;;;;;;;4.03;3.63;;;7.20;99.90;;;;;;5052792;28;20171;-72
2021/12/04 04:05:40;;;;;;;4.65;3.70;;;7.30;99.90;;;;;;5052183;28;20550;-73
2021/12/04 04:08:06;;;;;;;3.78;3.42;;;7.20;99.90;;;;;;5052433;28;20103;-73
2021/12/04 04:10:32;;;;;;;7.57;5.25;;;7.20;99.90;;;;;;5050693;28;20377;-73
2021/12/04 04:12:57;;;;;;;5.53;4.55;;;7.20;99.90;;;;;;5051930;28;20032;-73
2021/12/04 04:15:24;;;;;;;8.00;4.38;;;7.30;99.90;;;;;;5052648;28;20009;-72
2021/12/04 04:17:50;;;;;;;5.45;4.68;;;7.30;99.90;;;;;;5051789;28;20028;-73
2021/12/04 04:20:21;;;;;;;4.80;4.40;;;7.30;99.90;;;;;;5050598;28;20017;-73
2021/12/04 04:22:48;;;;;;;5.97;5.00;;;7.30;99.90;;;;;;5048941;28;20029;-72
2021/12/04 04:25:16;;;;;;;10.50;7.43;;;7.30;99.90;;;;;;5050979;28;20013;-72
2021/12/04 04:27:42;;;;;;;8.07;5.22;;;7.30;99.90;;;;;;5050592;28;20075;-72
2021/12/04 04:30:15;;;;;;;5.07;4.57;;;7.30;99.90;;;;;;5051906;28;20025;-73
2021/12/04 04:32:42;;;;;;;4.72;3.60;;;7.30;99.90;;;;;;5052257;28;20052;-73
2021/12/04 04:35:20;;;;;;;6.50;4.35;;;7.30;99.90;;;;;;5052255;28;20373;-73
2021/12/04 04:37:55;;;;;;;3.63;3.33;;;7.30;99.90;;;;;;5049808;28;20021;-72
2021/12/04 04:57:30;;;;;;;4.30;3.55;;;7.30;99.90;;;;;;5052222;28;20037;-73
2021/12/04 05:02:35;;;;;;;5.60;4.90;;;7.20;99.90;;;;;;5053341;28;20041;-73
2021/12/04 05:13:06;;;;;;;12.20;4.20;;;7.30;99.90;;;;;;5051295;28;20037;-73
2021/12/04 05:15:37;;;;;;;5.05;4.10;;;7.20;99.90;;;;;;5051880;28;20013;-73
2021/12/04 05:21:11;;;;;;;7.40;4.80;;;7.10;99.90;;;;;;5050609;28;20036;-72
2021/12/04 05:23:45;;;;;;;5.88;4.15;;;7.10;99.90;;;;;;5049937;28;20021;-73
2021/12/04 05:26:20;;;;;;;7.50;4.00;;;7.20;99.90;;;;;;5051176;28;20029;-72
2021/12/04 05:28:47;;;;;;;4.18;3.78;;;7.20;99.90;;;;;;5049572;28;20100;-72
2021/12/04 05:31:13;;;;;;;4.60;3.67;;;7.10;99.90;;;;;;5051178;28;20029;-72
2021/12/04 05:33:39;;;;;;;4.25;3.85;;;7.10;99.90;;;;;;5048984;28;20521;-72
2021/12/04 05:36:07;;;;;;;3.72;3.35;;;7.00;99.90;;;;;;5051398;28;20123;-72
2021/12/04 05:38:33;;;;;;;4.57;3.28;;;7.00;99.90;;;;;;5051100;28;20021;-72
2021/12/04 05:40:59;;;;;;;4.78;3.53;;;7.10;99.90;;;;;;5048576;28;20024;-72
2021/12/04 05:43:26;;;;;;;2.92;2.72;;;7.10;99.90;;;;;;5051566;28;20128;-72
2021/12/04 05:45:58;;;;;;;4.18;3.38;;;7.20;99.90;;;;;;5051291;28;20020;-72
2021/12/04 05:48:42;;;;;;;;;;;7.20;99.90;;;;;;5050028;28;20024;-72
2021/12/04 05:56:53;;;;;;;4.35;3.40;;;7.30;99.90;;;;;;5050034;28;20095;-73
2021/12/04 05:59:19;;;;;;;3.63;3.05;;;7.30;99.90;;;;;;5048961;28;20028;-72
2021/12/04 06:01:45;;;;;;;3.35;3.05;;;7.30;99.90;;;;;;5049389;28;20029;-73
2021/12/04 06:04:10;;;;;;;3.05;2.78;;;7.30;99.90;;;;;;5051086;28;20366;-73
2021/12/04 06:06:36;;;;;;;4.20;3.05;;;7.40;99.90;;;;;;5049451;28;20594;-72
2021/12/04 06:09:06;;;;;;;4.15;3.20;;;7.40;99.90;;;;;;5050659;28;20075;-73
2021/12/04 06:11:32;;;;;;;5.20;3.00;;;7.40;99.90;;;;;;5049611;28;20453;-72
2021/12/04 06:13:58;;;;;;;3.45;3.15;;;7.30;99.90;;;;;;5053516;28;21056;-72
2021/12/04 06:16:24;;;;;;;5.07;3.95;;;7.20;99.90;;;;;;5051201;28;20025;-72
2021/12/04 06:18:53;;;;;;;5.43;4.15;;;7.10;99.90;;;;;;5055028;28;20017;-73
2021/12/04 06:24:04;;;;;;;5.32;3.20;;;7.20;99.90;;;;;;5051907;28;20393;-73
2021/12/04 06:26:31;;;;;;;5.15;3.72;;;7.20;99.90;;;;;;5054791;28;20013;-73
2021/12/04 06:28:57;;;;;;;8.23;4.10;;;7.30;99.90;;;;;;5054827;28;20028;-72
2021/12/04 06:31:24;;;;;;;6.63;5.35;;;7.30;99.90;;;;;;5052964;28;20405;-72
2021/12/04 06:33:51;;;;;;;10.13;5.18;;;7.30;99.90;;;;;;5052976;28;20017;-72
2021/12/04 06:36:18;;;;;;;7.60;5.28;;;7.40;99.90;;;;;;5054085;28;20508;-72
2021/12/04 06:38:44;;;;;;;6.75;5.07;;;7.30;99.90;;;;;;5053964;28;20463;-72
2021/12/04 06:41:10;;;;;;;9.02;6.45;;;7.20;99.90;;;;;;5053672;28;20025;-72
2021/12/04 06:43:37;;;;;;;11.00;7.10;;;7.10;99.90;;;;;;5054666;28;20040;-72
2021/12/04 06:46:05;;;;;;;11.35;7.05;;;7.20;99.90;;;;;;5054650;28;20033;-73
2021/12/04 06:49:38;;;;;;;11.52;7.53;;;7.30;99.90;;;;;;5054451;28;20484;-72
2021/12/04 06:51:34;;;;;;;8.98;6.45;;;7.20;99.90;;;;;;5052755;28;20041;-72
2021/12/04 06:54:07;;;;;;;9.95;7.38;;;7.20;99.90;;;;;;5054065;28;20461;-72
2021/12/04 06:56:39;;;;;;;11.05;6.63;;;7.20;99.90;;;;;;5054335;28;20385;-72
2021/12/04 06:59:08;;;;;;;13.20;6.90;;;7.30;99.90;;;;;;5051202;28;20522;-72
2021/12/04 07:01:35;;;;;;;12.52;7.00;;;7.30;99.90;;;;;;5053253;28;20054;-72
2021/12/04 07:04:01;;;;;;;12.75;7.03;;;7.20;99.90;;;;;;5053639;28;20021;-72
2021/12/04 07:06:27;;;;;;;11.35;6.72;;;7.30;99.90;;;;;;5053519;28;20036;-72
2021/12/04 07:08:54;;;;;;;9.52;7.20;;;7.30;99.90;;;;;;5053801;28;20025;-73
2021/12/04 07:11:20;;;;;;;7.10;5.45;;;7.30;99.90;;;;;;5053826;28;20473;-73
2021/12/04 07:13:46;;;;;;;8.38;5.85;;;7.40;99.90;;;;;;5052462;28;20028;-73
2021/12/04 07:16:15;;;;;;;13.20;6.72;;;7.40;99.90;;;;;;5054222;28;20017;-72
2021/12/04 07:18:41;;;;;;;9.85;6.47;;;7.30;99.90;;;;;;5053714;28;20107;-72
2021/12/04 07:21:07;;;;;;;7.18;5.88;;;7.30;99.90;;;;;;5053329;28;20540;-73
2021/12/04 07:23:33;;;;;;;8.88;6.60;;;7.40;99.90;;;;;;5053408;28;20432;-72
2021/12/04 07:25:58;;;;;;;19.13;7.18;;;7.30;99.90;;;;;;5052507;28;20021;-73
2021/12/04 07:28:24;;;;;;;12.95;7.68;;;7.40;99.90;;;;;;5053458;28;20047;-73
2021/12/04 07:30:50;;;;;;;11.15;7.13;;;7.30;99.90;;;;;;5053343;28;20087;-73
2021/12/04 07:33:16;;;;;;;12.68;6.60;;;7.20;99.90;;;;;;5053750;28;20610;-73
2021/12/04 07:35:42;;;;;;;9.38;6.28;;;7.20;99.90;;;;;;5053309;28;20017;-73
2021/12/04 07:38:10;;;;;;;10.63;6.40;;;7.20;99.90;;;;;;5053474;28;20029;-73
2021/12/04 07:40:37;;;;;;;10.98;6.60;;;7.20;99.90;;;;;;5053606;28;20009;-73
2021/12/04 07:43:02;;;;;;;8.75;6.25;;;7.20;99.90;;;;;;5052104;28;20028;-73
2021/12/04 07:45:28;;;;;;;11.40;6.57;;;7.20;99.90;;;;;;5053216;28;20017;-73
2021/12/04 07:47:54;;;;;;;11.63;6.63;;;7.20;99.90;;;;;;5053309;28;20032;-72
2021/12/04 07:50:21;;;;;;;13.88;6.75;;;7.20;99.90;;;;;;5053570;28;20050;-73
2021/12/04 07:52:47;;;;;;;7.75;5.90;;;7.20;99.90;;;;;;5052955;28;20248;-73
2021/12/04 07:55:13;;;;;;;13.30;7.05;;;7.20;99.90;;;;;;5052161;28;20017;-72
2021/12/04 07:57:38;;;;;;;9.52;6.57;;;7.20;99.90;;;;;;5052323;28;20029;-72
2021/12/04 08:00:08;;;;;;;9.27;5.63;;;7.20;99.90;;;;;;5051586;28;20112;-73
2021/12/04 08:02:34;;;;;;;8.98;5.53;;;7.20;99.90;;;;;;5052895;28;20059;-73
2021/12/04 08:05:00;;;;;;;10.48;5.72;;;7.30;99.90;;;;;;5052325;28;20048;-73
2021/12/04 08:07:25;;;;;;;9.07;6.10;;;7.30;99.90;;;;;;5052837;28;20473;-74
2021/12/04 08:09:51;;;;;;;11.48;6.43;;;7.30;99.90;;;;;;5052542;28;20017;-73
2021/12/04 08:12:17;;;;;;;8.90;5.43;;;7.30;99.90;;;;;;5051102;28;20063;-73
2021/12/04 08:14:43;;;;;;;8.85;6.07;;;7.30;99.90;;;;;;5052554;28;20013;-73
2021/12/04 08:17:08;;;;;;;6.55;4.72;;;7.30;99.90;;;;;;5052466;28;20473;-72
2021/12/04 08:19:34;;;;;;;7.72;4.85;;;7.30;99.90;;;;;;5052259;28;20083;-72
2021/12/04 08:22:00;;;;;;;11.18;6.15;;;7.30;99.90;;;;;;5050422;28;20477;-72
2021/12/04 08:24:26;;;;;;;7.53;5.38;;;7.30;99.90;;;;;;5046969;28;20029;-72
2021/12/04 08:26:52;;;;;;;13.60;6.60;;;7.20;99.90;;;;;;5049329;28;20021;-73
2021/12/04 08:29:18;;;;;;;9.30;5.80;;;7.10;99.90;;;;;;5042848;28;20022;-72
2021/12/04 08:31:46;;;;;;;14.75;7.90;;;7.20;99.90;;;;;;5048775;28;20041;-72
2021/12/04 08:34:12;;;;;;;16.55;9.20;;;7.10;99.90;;;;;;5053483;28;20378;-73
2021/12/04 08:36:38;;;;;;;11.85;8.75;;;7.10;99.90;;;;;;5041582;28;20037;-75
2021/12/04 08:39:05;;;;;;;10.23;7.07;;;7.20;99.90;;;;;;5041220;28;20029;-74
2021/12/04 08:41:31;;;;;;;14.30;7.63;;;7.10;99.90;;;;;;5041074;28;20032;-73
2021/12/04 08:43:57;;;;;;;14.20;8.98;;;7.10;99.90;;;;;;5056122;28;20076;-73
2021/12/04 08:46:23;;;;;;;10.98;7.43;;;7.20;99.90;;;;;;5054215;28;20496;-74
2021/12/04 08:48:54;;;;;;;8.75;6.72;;;7.30;99.90;;;;;;5056149;28;20030;-74
2021/12/04 08:51:22;;;;;;;10.20;7.40;;;7.30;99.90;;;;;;5045618;28;20092;-74
2021/12/04 08:53:50;;;;;;;10.77;7.28;;;7.30;99.90;;;;;;5053380;28;20169;-73
2021/12/04 08:56:15;;;;;;;8.38;6.13;;;7.40;99.90;;;;;;5046963;28;20052;-73
2021/12/04 08:58:42;;;;;;;11.45;6.88;;;7.30;99.90;;;;;;5048578;28;20434;-73
2021/12/04 09:01:12;;;;;;;9.00;5.88;;;7.40;99.90;;;;;;5041317;28;20021;-73
2021/12/04 09:03:45;;;;;;;10.27;5.53;;;7.50;99.90;;;;;;5047575;28;20025;-73
2021/12/04 09:06:12;;;;;;;6.25;5.63;;;7.40;99.90;;;;;;5046240;28;20017;-73
2021/12/04 09:08:38;;;;;;;8.10;6.05;;;7.30;99.90;;;;;;5050080;28;20388;-73
2021/12/04 09:11:09;;;;;;;13.02;8.20;;;7.30;99.90;;;;;;5047720;28;20024;-73
2021/12/04 09:13:35;;;;;;;17.02;9.80;;;7.30;99.90;;;;;;5046528;28;20017;-73
2021/12/04 09:16:02;;;;;;;14.95;8.23;;;7.30;99.90;;;;;;5045350;28;20039;-73
2021/12/04 09:18:28;;;;;;;10.95;7.15;;;7.30;99.90;;;;;;5048714;28;20017;-73
2021/12/04 09:20:55;;;;;;;7.47;4.78;;;7.40;99.90;;;;;;5042255;28;20379;-73
2021/12/04 09:23:22;;;;;;;10.45;5.65;;;7.40;99.90;;;;;;5046170;28;20032;-73
2021/12/04 09:25:53;;;;;;;7.82;5.05;;;7.50;99.90;;;;;;5054849;28;20024;-73
2021/12/04 09:28:25;;;;;;;7.70;4.88;;;7.60;99.90;;;;;;5051913;28;20032;-73
2021/12/04 09:31:21;;;;;;;7.72;5.70;;;7.60;99.90;;;;;;5050697;28;20067;-73
2021/12/04 10:04:22;;;;;;;8.68;7.00;;;7.80;99.90;;;;;;5050905;28;20068;-73
2021/12/04 10:33:17;;;;;;;8.90;6.18;;;8.00;99.90;;;;;;5043452;28;20072;-74
2021/12/04 10:35:45;;;;;;;10.40;7.22;;;8.00;99.90;;;;;;5050998;28;20025;-74
2021/12/04 10:38:25;;;;;;;5.65;4.90;;;8.00;99.90;;;;;;5044240;28;20587;-74
2021/12/04 10:40:53;;;;;;;6.30;4.72;;;7.90;99.90;;;;;;5043311;28;20145;-74
2021/12/04 10:43:30;;;;;;;6.43;5.47;;;7.90;99.90;;;;;;5045767;28;20036;-74
2021/12/04 10:46:10;;;;;;;7.80;6.20;;;8.00;99.90;;;;;;5050041;28;20029;-74
2021/12/04 10:48:43;;;;;;;7.40;5.63;;;8.00;99.90;;;;;;5050723;28;20025;-74
2021/12/04 10:53:56;;;;;;;6.95;5.38;;;8.00;99.90;;;;;;5048315;28;20525;-74
2021/12/04 11:04:51;;;;;;;4.68;4.28;;;8.10;99.90;;;;;;5057573;28;20037;-74
2021/12/04 11:35:36;;;;;;;5.78;4.43;;;8.40;99.90;;;;;;5046596;28;20039;-74
2021/12/04 11:43:23;;;;;;;7.80;5.25;;;8.40;99.90;;;;;;5065828;28;20037;-74
2021/12/04 11:48:41;;;;;;;8.50;5.72;;;8.40;99.90;;;;;;5054132;28;20059;-75
2021/12/04 11:51:20;;;;;;;8.93;6.70;;;8.30;99.90;;;;;;5045443;28;20032;-75
2021/12/04 11:53:48;;;;;;;10.70;6.68;;;8.30;99.90;;;;;;5062202;28;20053;-74
2021/12/04 11:56:20;;;;;;;9.77;6.88;;;8.30;99.90;;;;;;5067003;28;20445;-75
2021/12/04 11:58:48;;;;;;;8.18;6.68;;;8.30;99.90;;;;;;5053598;28;20020;-75
2021/12/04 12:01:31;;;;;;;10.18;7.38;;;8.00;99.90;;;;;;5059536;28;20029;-75
2021/12/04 12:04:04;;;;;;;11.23;8.13;;;8.10;99.90;;;;;;5069594;28;20013;-75
2021/12/04 12:06:32;;;;;;;14.40;10.98;;;8.10;99.90;;;;;;5056495;28;20434;-74
2021/12/04 12:09:15;;;;;;;15.85;10.40;;;8.00;99.90;;;;;;5068004;28;20029;-75
2021/12/04 12:11:53;;;;;;;15.63;9.20;;;7.90;99.90;;;;;;5061753;28;20024;-72
2021/12/04 12:14:23;;;;;;;14.65;8.70;;;7.80;99.90;;;;;;5057519;28;20087;-75
2021/12/04 12:16:54;;;;;;;12.05;9.40;;;7.70;99.90;;;;;;5055864;28;20028;-74
2021/12/04 12:19:26;;;;;;;14.73;9.82;;;7.70;99.90;;;;;;5062582;28;20070;-74
2021/12/04 12:22:06;;;;;;;11.80;8.57;;;7.70;99.90;;;;;;5063949;28;20029;-74
2021/12/04 12:38:35;;;;;;;20.88;10.55;;;7.90;99.90;;;;;;5052551;28;20029;-75
2021/12/04 12:41:19;;;;;;;16.00;10.45;;;7.90;99.90;;;;;;5058245;28;20060;-74
2021/12/04 12:44:11;;;;;;;16.13;9.25;;;7.90;99.90;;;;;;5063669;28;20051;-75
2021/12/04 12:46:53;;;;;;;16.52;11.00;;;7.90;99.90;;;;;;5069916;28;20157;-75
2021/12/04 12:49:29;;;;;;;19.25;12.05;;;7.80;99.90;;;;;;5061240;28;20028;-75
2021/12/04 12:52:15;;;;;;;21.52;11.00;;;7.90;99.90;;;;;;5059246;28;20085;-75
2021/12/04 12:55:04;;;;;;;14.75;9.40;;;7.90;99.90;;;;;;5053619;28;20025;-74
2021/12/04 12:57:39;;;;;;;17.85;10.52;;;8.00;99.90;;;;;;5061690;28;20062;-75
2021/12/04 13:11:45;;;;;;;17.30;10.98;;;8.00;99.90;;;;;;5051040;28;20086;-75
2021/12/04 13:14:14;;;;;;;20.63;11.07;;;8.00;99.90;;;;;;5072317;28;20024;-75
2021/12/04 13:16:43;;;;;;;14.77;10.05;;;8.00;99.90;;;;;;5068790;28;20024;-75
2021/12/04 13:19:13;;;;;;;16.17;9.90;;;8.10;99.90;;;;;;5065765;28;20021;-74
2021/12/04 13:21:43;;;;;;;17.77;11.68;;;8.10;99.90;;;;;;5061535;28;20063;-74
2021/12/04 13:24:11;;;;;;;18.38;10.77;;;8.10;99.90;;;;;;5057371;28;20120;-73
2021/12/04 13:26:43;;;;;;;13.23;9.55;;;8.10;99.90;;;;;;5067490;28;20107;-73
2021/12/04 13:29:10;;;;;;;15.07;9.68;;;8.10;99.90;;;;;;5055241;28;20043;-72
2021/12/04 13:31:38;;;;;;;14.88;10.25;;;8.20;99.90;;;;;;5060732;28;20080;-73
2021/12/04 13:34:07;;;;;;;16.48;10.15;;;8.10;99.90;;;;;;5058561;28;20094;-74
2021/12/04 13:36:33;;;;;;;15.77;10.23;;;8.10;99.90;;;;;;5064654;28;20465;-74
2021/12/04 13:39:10;;;;;;;15.32;10.13;;;8.10;99.90;;;;;;5051492;28;20021;-74
2021/12/04 13:41:39;;;;;;;16.33;10.18;;;8.00;99.90;;;;;;5064063;28;20094;-74
2021/12/04 13:44:07;;;;;;;13.65;10.15;;;8.10;99.90;;;;;;5051063;28;20017;-77
2021/12/04 13:46:44;;;;;;;16.67;10.88;;;8.10;99.90;;;;;;5066175;28;20033;-77
2021/12/04 13:49:13;;;;;;;16.08;11.25;;;8.10;99.90;;;;;;5059180;28;20029;-77
2021/12/04 13:51:39;;;;;;;20.83;11.43;;;8.00;99.90;;;;;;5061222;28;20425;-77
2021/12/04 13:54:06;;;;;;;14.75;10.60;;;8.00;99.90;;;;;;5067657;28;20491;-77
2021/12/04 13:56:33;;;;;;;16.75;12.10;;;8.00;99.90;;;;;;5053051;28;20056;-76
2021/12/04 13:59:02;;;;;;;17.20;12.70;;;7.90;99.90;;;;;;5056818;28;20477;-75
2021/12/04 14:01:35;;;;;;;21.13;12.90;;;8.00;99.90;;;;;;5071186;28;20032;-73
2021/12/04 14:04:03;;;;;;;21.38;14.70;;;8.00;99.90;;;;;;5059128;28;20086;-73
2021/12/04 14:06:29;;;;;;;19.75;12.65;;;8.00;99.90;;;;;;5056644;28;20027;-74
2021/12/04 14:09:04;;;;;;;18.50;12.60;;;8.00;99.90;;;;;;5067081;28;20108;-74
2021/12/04 14:11:40;;;;;;;20.20;13.85;;;7.90;99.90;;;;;;5060179;28;20111;-74
2021/12/04 14:14:20;;;;;;;21.02;14.73;;;7.90;99.90;;;;;;5056837;28;20108;-74
2021/12/04 14:16:51;;;;;;;25.58;14.68;;;7.90;99.90;;;;;;5067112;28;20028;-75
2021/12/04 14:19:23;;;;;;;26.13;16.20;;;8.00;99.90;;;;;;5064346;28;20481;-75
2021/12/04 14:22:11;;;;;;;28.67;16.30;;;8.00;99.90;;;;;;5057584;28;20025;-74
2021/12/04 14:24:44;;;;;;;21.92;15.38;;;8.00;99.90;;;;;;5067580;28;20112;-74
2021/12/04 14:27:39;;;;;;;24.58;16.17;;;8.00;99.90;;;;;;5057840;28;20025;-74
2021/12/04 14:30:07;;;;;;;24.52;14.80;;;8.00;99.90;;;;;;5051827;28;20049;-73
2021/12/04 14:32:35;;;;;;;26.80;15.75;;;8.00;99.90;;;;;;5065967;28;20041;-73
2021/12/04 14:35:15;;;;;;;19.63;13.40;;;8.00;99.90;;;;;;5058783;28;20112;-73
2021/12/04 14:37:45;;;;;;;21.98;13.48;;;7.90;99.90;;;;;;5064138;28;20040;-73
2021/12/04 14:40:15;;;;;;;17.20;12.15;;;7.80;99.90;;;;;;5057769;28;20024;-73
2021/12/04 14:42:42;;;;;;;15.75;11.18;;;7.80;99.90;;;;;;5057058;28;20029;-74
2021/12/04 14:45:19;;;;;;;24.02;12.30;;;7.80;99.90;;;;;;5062603;28;20021;-73
2021/12/04 14:47:49;;;;;;;18.95;10.65;;;7.80;99.90;;;;;;5065771;28;20042;-74
2021/12/04 14:50:17;;;;;;;15.15;9.93;;;7.80;99.90;;;;;;5059446;28;20021;-73
2021/12/04 14:52:51;;;;;;;17.90;10.48;;;7.80;99.90;;;;;;5070970;28;20036;-73
2021/12/04 14:55:29;;;;;;;14.38;8.02;;;7.80;99.90;;;;;;5062194;28;20017;-74
2021/12/04 14:57:56;;;;;;;13.75;8.32;;;7.70;99.90;;;;;;5061916;28;20060;-74
2021/12/04 15:00:32;;;;;;;11.50;7.78;;;7.70;99.90;;;;;;5070231;28;20013;-74
2021/12/04 15:03:02;;;;;;;15.32;8.82;;;7.70;99.90;;;;;;5058695;28;20408;-74
2021/12/04 15:05:35;;;;;;;14.23;7.45;;;7.80;99.90;;;;;;5064576;28;20029;-74
2021/12/04 15:08:14;;;;;;;12.45;6.50;;;7.80;99.90;;;;;;5061826;28;20028;-74
2021/12/04 15:10:41;;;;;;;11.05;6.32;;;7.70;99.90;;;;;;5072874;28;20125;-73
2021/12/04 15:13:17;;;;;;;11.13;7.13;;;7.70;99.90;;;;;;5067611;28;20663;-74
2021/12/04 15:15:43;;;;;;;11.35;6.57;;;7.80;99.90;;;;;;5055857;28;20013;-74
2021/12/04 15:18:12;;;;;;;10.27;6.55;;;7.80;99.90;;;;;;5063524;28;20036;-73
2021/12/04 15:20:46;;;;;;;9.13;5.82;;;7.80;99.90;;;;;;5069131;28;20070;-73
2021/12/04 15:23:19;;;;;;;9.85;6.00;;;7.90;99.90;;;;;;5060357;28;20483;-74
2021/12/04 15:25:47;;;;;;;9.52;6.05;;;7.90;99.90;;;;;;5055619;28;20191;-73
2021/12/04 15:28:18;;;;;;;10.98;6.30;;;7.90;99.90;;;;;;5051540;28;20036;-73
2021/12/04 15:30:50;;;;;;;10.32;5.57;;;7.80;99.90;;;;;;5050692;28;20090;-73
2021/12/04 15:33:26;;;;;;;10.05;5.80;;;7.80;99.90;;;;;;5057994;28;20108;-73
2021/12/04 15:35:54;;;;;;;13.20;6.38;;;7.70;99.90;;;;;;5043481;28;20416;-73
2021/12/04 15:38:40;;;;;;;12.15;6.72;;;7.80;99.90;;;;;;5042255;28;20535;-73
2021/12/04 15:44:04;;;;;;;15.05;7.72;;;7.80;99.90;;;;;;5048262;28;20097;-73
2021/12/04 15:46:42;;;;;;;16.00;7.25;;;7.80;99.90;;;;;;5042272;28;20116;-73
2021/12/04 15:54:26;;;;;;;16.13;7.85;;;7.80;99.90;;;;;;5044015;28;20066;-73
2021/12/04 15:56:54;;;;;;;13.23;7.25;;;7.60;99.90;;;;;;5048814;28;20029;-73
2021/12/04 15:59:21;;;;;;;16.30;7.13;;;7.60;99.90;;;;;;5043024;28;20059;-73
2021/12/04 16:01:50;;;;;;;17.88;7.80;;;7.70;99.90;;;;;;5049177;28;20032;-73
2021/12/04 16:04:27;;;;;;;13.68;7.13;;;7.70;99.90;;;;;;5053110;28;20405;-73
2021/12/04 16:06:54;;;;;;;17.50;7.18;;;7.70;99.90;;;;;;5044946;28;20458;-73
2021/12/04 16:09:36;;;;;;;11.98;7.35;;;7.70;99.90;;;;;;5043095;28;20021;-73
2021/12/04 16:12:07;;;;;;;15.90;7.95;;;7.70;99.90;;;;;;5041852;28;20091;-73
2021/12/04 16:14:39;;;;;;;13.93;7.93;;;7.70;99.90;;;;;;5047721;28;20028;-73
2021/12/04 16:17:06;;;;;;;19.83;7.88;;;7.70;99.90;;;;;;5044906;28;20045;-73
2021/12/04 16:19:33;;;;;;;14.88;7.00;;;7.70;99.90;;;;;;5050891;28;20115;-73
2021/12/04 16:22:08;;;;;;;14.93;6.35;;;7.60;99.90;;;;;;5064674;28;20029;-73